EDT,Max TemperatureF,Mean TemperatureF,Min TemperatureF,Max Dew PointF,MeanDew PointF,Min DewpointF,Max Humidity, Mean Humidity, Min Humidity, Max Sea Level PressureIn, Mean Sea Level PressureIn, Min Sea Level PressureIn, Max VisibilityMiles, Mean VisibilityMiles, Min VisibilityMiles, Max Wind SpeedMPH, Mean Wind SpeedMPH, Max Gust SpeedMPH,PrecipitationIn, CloudCover, Events, WindDirDegrees
2013-10-1,73,62,51,55,50,36,100,75,25,29.95,29.86,29.79,10,10,2,12,4,16,0.00,1,,346
2013-10-2,53,52,50,54,51,48,100,100,94,29.83,29.81,29.81,10,6,0,0,0,,0.00,2,,-1
2013-10-3,,,,,,,,,,,,,,,,,,,,,,
2013-10-4,69,56,44,52,46,41,100,70,35,30.08,30.04,30.00,10,10,2,9,2,,0.00,2,,304
2013-10-5,62,54,46,50,45,39,100,75,48,30.15,30.11,30.08,10,10,10,10,3,,0.00,4,,285
2013-10-6,57,48,39,48,40,34,94,69,41,30.30,30.25,30.15,10,10,5,9,6,,0.07,2,,97
2013-10-7,66,57,48,66,57,46,100,95,88,30.25,30.05,29.80,10,9,4,25,10,39,0.05,8,,150
2013-10-8,66,52,39,66,46,37,100,75,42,30.38,30.10,29.80,10,9,3,24,10,37,0.11,2,,290
2013-10-9,60,46,33,45,40,34,100,80,48,30.48,30.42,30.36,10,10,7,13,2,16,0.00,0,,199
2013-10-10,60,48,35,52,44,36,100,85,55,30.36,30.28,30.19,10,9,0,12,2,,0.00,1,,199
2013-10-11,71,56,42,57,49,43,100,82,43,30.21,30.15,30.11,10,9,0,7,1,,0.00,1,,37
2013-10-12,57,49,39,54,47,39,100,85,63,30.43,30.36,30.21,10,10,3,14,6,20,0.00,5,,66
2013-10-13,57,48,39,46,43,37,100,84,59,30.47,30.43,30.39,10,9,3,13,2,,0.00,3,,198
2013-10-14,57,46,35,52,45,36,100,86,67,30.39,30.31,30.25,10,10,8,16,4,16,0.00,3,,203
2013-10-15,64,56,48,54,51,46,100,88,63,30.28,30.25,30.21,10,10,5,9,2,,0.00,5,,157
2013-10-16,57,54,50,55,54,48,100,98,88,30.23,30.09,29.88,10,7,1,10,3,,0.00,8,,77
2013-10-17,59,55,51,57,54,52,100,98,94,29.89,29.81,29.76,10,5,0,9,3,,0.01,8,,216
2013-10-18,62,56,51,61,53,46,100,88,68,29.79,29.67,29.57,10,6,0,13,4,23,0.30,6,,251
2013-10-19,62,55,48,50,44,39,94,72,42,29.91,29.86,29.78,10,10,10,15,6,22,0.00,1,,224
2013-10-20,62,54,46,55,43,28,100,68,31,29.91,29.74,29.67,10,10,10,13,6,22,0.00,4,,235
2013-10-21,59,50,42,48,38,30,100,68,36,30.05,30.00,29.91,10,10,10,12,5,18,0.00,0,,243
2013-10-22,59,54,46,55,52,45,100,91,77,30.00,29.83,29.68,10,10,10,21,8,29,0.01,5,,195
2013-10-23,53,44,35,45,37,30,100,77,47,29.76,29.68,29.56,10,10,1,10,1,,0.01,2,,213
2013-10-24,50,42,35,43,30,23,100,60,37,29.76,29.66,29.56,10,10,10,13,4,23,0.00,5,,270
2013-10-25,51,43,35,34,31,27,87,63,43,30.05,29.91,29.77,10,10,10,10,5,20,0.00,3,,280
2013-10-26,50,42,35,41,33,25,100,74,46,30.09,30.00,29.87,10,10,5,20,5,29,0.03,4,,247
2013-10-27,53,47,39,45,39,30,100,76,53,29.95,29.83,29.76,10,10,10,14,4,20,0.03,7,,253
2013-10-28,53,44,35,39,31,25,87,64,47,30.31,30.07,29.96,10,10,10,17,6,28,0.00,2,,265
2013-10-29,46,36,26,28,24,16,100,69,29,30.44,30.38,30.32,10,10,6,7,3,,0.00,0,,308
2013-10-30,46,35,24,37,25,18,100,72,34,30.34,30.23,30.14,10,10,5,9,2,,0.00,1,,264
2013-10-31,57,42,26,57,40,25,100,90,66,30.25,30.11,29.79,10,9,5,24,5,30,0.32,4,,185